Time;durP1;ratioP1;P1;durP2;ratioP2;P2;SDS_P1;SDS_P2;PMS_P1;PMS_P2;Temp;Humidity;BMP_temperature;BMP_pressure;BME280_temperature;BME280_humidity;BME280_pressure;Samples;Min_cycle;Max_cycle;Signal;HPM_P1;HPM_P2
2020/12/31 00:01:01;;;;;;;6.53;5.77;;;5.30;99.90;;;;;;5043083;28;20183;-73
2020/12/31 00:03:27;;;;;;;7.43;5.57;;;5.30;99.90;;;;;;5043583;28;20178;-72
2020/12/31 00:05:52;;;;;;;7.13;6.43;;;5.30;99.90;;;;;;5041780;28;20590;-72
2020/12/31 00:08:18;;;;;;;5.97;5.37;;;5.30;99.90;;;;;;5050056;28;20188;-72
2020/12/31 00:10:43;;;;;;;6.63;5.57;;;5.30;99.90;;;;;;5051675;28;20174;-72
2020/12/31 00:13:09;;;;;;;6.27;5.63;;;5.20;99.90;;;;;;5042701;28;20178;-71
2020/12/31 00:15:34;;;;;;;8.37;5.20;;;5.20;99.90;;;;;;5042491;28;20218;-71
2020/12/31 00:18:00;;;;;;;7.47;5.77;;;5.20;99.90;;;;;;5042561;28;20175;-71
2020/12/31 00:20:25;;;;;;;6.37;5.77;;;5.20;99.90;;;;;;5042072;28;20181;-71
2020/12/31 00:22:51;;;;;;;7.37;5.70;;;5.10;99.90;;;;;;5051865;28;20186;-71
2020/12/31 00:25:17;;;;;;;7.03;5.70;;;5.10;99.90;;;;;;5039030;28;20239;-71
2020/12/31 00:27:42;;;;;;;8.13;5.80;;;5.10;99.90;;;;;;5053604;28;20501;-71
2020/12/31 00:30:09;;;;;;;7.40;6.70;;;5.10;99.90;;;;;;5050639;28;20612;-71
2020/12/31 00:32:35;;;;;;;6.80;5.47;;;5.20;99.90;;;;;;5034458;28;20174;-71
2020/12/31 00:35:04;;;;;;;8.40;6.40;;;5.20;99.90;;;;;;5034029;28;20475;-71
2020/12/31 00:37:34;;;;;;;7.60;5.90;;;5.10;99.90;;;;;;5039030;28;20692;-71
2020/12/31 00:40:00;;;;;;;6.00;5.27;;;5.10;99.90;;;;;;5052676;28;20412;-71
2020/12/31 00:42:26;;;;;;;7.33;6.47;;;5.00;99.90;;;;;;5037855;28;20411;-71
2020/12/31 00:44:51;;;;;;;7.43;6.50;;;5.10;99.90;;;;;;5053027;28;20428;-72
2020/12/31 00:47:17;;;;;;;8.43;6.37;;;5.10;99.90;;;;;;5053017;28;20264;-73
2020/12/31 00:49:43;;;;;;;7.87;6.50;;;5.00;99.90;;;;;;5048067;28;20192;-72
2020/12/31 00:52:08;;;;;;;8.17;6.70;;;5.10;99.90;;;;;;5050180;28;20196;-72
2020/12/31 00:54:34;;;;;;;9.23;6.23;;;5.00;99.90;;;;;;5032134;28;20183;-71
2020/12/31 00:56:59;;;;;;;11.77;6.73;;;5.00;99.90;;;;;;5033710;28;20618;-71
2020/12/31 00:59:25;;;;;;;6.83;5.80;;;5.00;99.90;;;;;;5043274;28;20186;-71
2020/12/31 01:01:50;;;;;;;10.27;5.93;;;5.00;99.90;;;;;;5052926;28;20236;-72
2020/12/31 01:04:16;;;;;;;12.37;6.73;;;5.00;99.90;;;;;;5045284;28;20173;-71
2020/12/31 01:06:42;;;;;;;5.90;5.17;;;5.00;99.90;;;;;;5033445;28;20213;-71
2020/12/31 01:09:08;;;;;;;8.50;6.80;;;5.00;99.90;;;;;;5039012;28;20560;-71
2020/12/31 01:11:35;;;;;;;6.50;5.90;;;4.90;99.90;;;;;;5052031;28;20186;-71
2020/12/31 01:14:01;;;;;;;6.40;5.80;;;4.90;99.90;;;;;;5033089;28;20524;-72
2020/12/31 01:16:26;;;;;;;8.37;7.33;;;4.90;99.90;;;;;;5040410;28;20546;-71
2020/12/31 01:18:52;;;;;;;8.53;7.17;;;4.90;99.90;;;;;;5036677;28;20179;-72
2020/12/31 01:21:17;;;;;;;8.20;6.30;;;4.90;99.90;;;;;;5052828;28;20678;-71
2020/12/31 01:23:43;;;;;;;7.93;7.13;;;4.90;99.90;;;;;;5043978;28;20183;-71
2020/12/31 01:26:11;;;;;;;8.50;7.17;;;4.90;99.90;;;;;;5037119;28;20528;-72
2020/12/31 01:28:37;;;;;;;7.17;6.00;;;4.90;99.90;;;;;;5053080;28;20182;-71
2020/12/31 01:31:07;;;;;;;11.07;7.17;;;4.80;99.90;;;;;;5048668;28;20436;-73
2020/12/31 01:33:34;;;;;;;7.97;7.00;;;4.80;99.90;;;;;;5032913;28;20195;-71
2020/12/31 01:35:59;;;;;;;8.97;7.10;;;4.80;99.90;;;;;;5041133;28;20490;-72
2020/12/31 01:38:25;;;;;;;7.60;6.80;;;4.90;99.90;;;;;;5037703;28;20416;-72
2020/12/31 01:40:52;;;;;;;9.43;7.10;;;4.80;99.90;;;;;;5052501;28;20179;-71
2020/12/31 01:43:18;;;;;;;9.37;6.43;;;4.80;99.90;;;;;;5043957;28;20356;-71
2020/12/31 01:45:43;;;;;;;11.40;7.63;;;4.80;99.90;;;;;;5046614;28;20451;-71
2020/12/31 01:48:09;;;;;;;9.80;8.30;;;4.80;99.90;;;;;;5042158;28;20648;-71
2020/12/31 01:50:35;;;;;;;9.13;7.73;;;4.80;99.90;;;;;;5044859;28;20254;-72
2020/12/31 01:53:00;;;;;;;9.00;7.67;;;4.80;99.90;;;;;;5052433;28;20236;-71
2020/12/31 01:55:26;;;;;;;8.30;7.40;;;4.80;99.90;;;;;;5033261;28;20466;-71
2020/12/31 01:57:52;;;;;;;8.53;7.73;;;4.80;99.90;;;;;;5038185;28;20221;-72
2020/12/31 02:00:17;;;;;;;9.10;6.83;;;4.80;99.90;;;;;;5044531;28;20177;-71
2020/12/31 02:02:43;;;;;;;10.47;7.80;;;4.80;99.90;;;;;;5033258;28;20414;-72
2020/12/31 02:05:09;;;;;;;8.73;7.10;;;4.90;99.90;;;;;;5039126;28;20176;-71
2020/12/31 02:07:35;;;;;;;9.17;6.87;;;4.80;99.90;;;;;;5034268;28;20181;-71
2020/12/31 02:10:00;;;;;;;8.40;7.00;;;4.80;99.90;;;;;;5041085;28;20236;-71
2020/12/31 02:12:26;;;;;;;10.43;7.43;;;4.80;99.90;;;;;;5040938;28;20420;-71
2020/12/31 02:14:52;;;;;;;8.17;7.00;;;4.80;99.90;;;;;;5052127;28;20186;-71
2020/12/31 02:17:18;;;;;;;8.57;7.40;;;4.80;99.90;;;;;;5038143;28;20207;-72
2020/12/31 02:19:44;;;;;;;9.03;7.10;;;4.80;99.90;;;;;;5033170;28;20413;-71
2020/12/31 02:22:11;;;;;;;10.10;6.97;;;4.80;99.90;;;;;;5036881;28;20190;-71
2020/12/31 02:24:36;;;;;;;7.83;6.70;;;4.80;99.90;;;;;;5051705;28;20261;-71
2020/12/31 02:27:02;;;;;;;8.70;6.50;;;4.90;99.90;;;;;;5041091;28;20468;-72
2020/12/31 02:29:28;;;;;;;8.73;6.40;;;4.80;99.90;;;;;;5032650;28;20244;-71
2020/12/31 02:31:53;;;;;;;9.33;7.00;;;4.80;99.90;;;;;;5032595;28;20175;-71
2020/12/31 02:34:19;;;;;;;7.57;6.50;;;4.80;99.90;;;;;;5039601;28;20202;-71
2020/12/31 02:36:44;;;;;;;11.30;7.47;;;4.80;99.90;;;;;;5032429;28;20280;-71
2020/12/31 02:39:12;;;;;;;7.10;6.40;;;4.90;99.90;;;;;;5032684;28;20225;-71
2020/12/31 02:41:39;;;;;;;7.67;6.87;;;4.90;99.90;;;;;;5046295;28;20166;-71
2020/12/31 02:44:05;;;;;;;6.63;6.03;;;4.90;99.90;;;;;;5049166;28;20441;-71
2020/12/31 02:46:31;;;;;;;7.47;6.70;;;4.90;99.90;;;;;;5032381;28;20446;-72
2020/12/31 02:48:56;;;;;;;9.53;7.53;;;4.90;99.90;;;;;;5047990;28;20427;-71
2020/12/31 02:51:22;;;;;;;8.37;6.77;;;4.90;99.90;;;;;;5042318;28;20550;-72
2020/12/31 02:53:48;;;;;;;9.80;6.30;;;4.90;99.90;;;;;;5046162;28;20573;-71
2020/12/31 02:56:19;;;;;;;6.33;5.70;;;4.90;99.90;;;;;;5048601;28;20546;-71
2020/12/31 02:58:46;;;;;;;11.93;6.37;;;4.90;99.90;;;;;;5043746;28;20185;-71
2020/12/31 03:01:11;;;;;;;8.13;6.80;;;4.90;99.90;;;;;;5050555;28;20460;-71
2020/12/31 03:03:37;;;;;;;9.07;6.70;;;4.90;99.90;;;;;;5034122;28;20482;-71
2020/12/31 03:06:04;;;;;;;9.63;6.90;;;4.90;99.90;;;;;;5034679;28;20657;-71
2020/12/31 03:08:30;;;;;;;9.20;7.30;;;4.80;99.90;;;;;;5036572;28;20939;-71
2020/12/31 03:10:56;;;;;;;7.30;6.60;;;4.80;99.90;;;;;;5055030;28;20427;-71
2020/12/31 03:13:23;;;;;;;8.87;6.87;;;4.80;99.90;;;;;;5040433;28;20186;-71
2020/12/31 03:15:56;;;;;;;9.07;6.87;;;4.80;99.90;;;;;;5041500;28;20547;-71
2020/12/31 03:18:22;;;;;;;8.57;7.07;;;4.80;99.90;;;;;;5039984;28;20428;-71
2020/12/31 03:20:48;;;;;;;9.20;6.83;;;4.80;99.90;;;;;;5038464;28;20485;-71
2020/12/31 03:23:14;;;;;;;8.17;6.40;;;4.80;99.90;;;;;;5047038;28;20431;-71
2020/12/31 03:25:42;;;;;;;10.60;6.90;;;4.80;99.90;;;;;;5053551;28;20527;-71
2020/12/31 03:28:08;;;;;;;6.93;6.23;;;4.80;99.90;;;;;;5040839;28;20957;-71
2020/12/31 03:30:34;;;;;;;6.43;5.70;;;4.80;99.90;;;;;;5054473;28;20847;-71
2020/12/31 03:33:01;;;;;;;6.67;6.03;;;4.80;99.90;;;;;;5044745;28;20452;-72
2020/12/31 03:35:27;;;;;;;8.07;6.60;;;4.70;99.90;;;;;;5033964;28;20869;-71
2020/12/31 03:37:53;;;;;;;7.10;6.20;;;4.70;99.90;;;;;;5035249;28;20510;-71
2020/12/31 03:40:19;;;;;;;7.87;6.50;;;4.70;99.90;;;;;;5035458;28;20782;-71
2020/12/31 03:42:44;;;;;;;8.10;6.30;;;4.70;99.90;;;;;;5035561;28;20206;-71
2020/12/31 03:45:10;;;;;;;9.23;7.07;;;4.60;99.90;;;;;;5042596;28;20807;-71
2020/12/31 03:47:35;;;;;;;7.70;6.87;;;4.70;99.90;;;;;;5048147;28;20536;-71
2020/12/31 03:50:01;;;;;;;7.83;6.40;;;4.70;99.90;;;;;;5053857;28;20325;-71
2020/12/31 03:52:27;;;;;;;7.70;6.90;;;4.70;99.90;;;;;;5037898;28;20618;-71
2020/12/31 03:54:53;;;;;;;8.93;6.63;;;4.70;99.90;;;;;;5047889;28;20500;-71
2020/12/31 03:57:18;;;;;;;7.20;6.50;;;4.70;99.90;;;;;;5051447;28;20211;-71
2020/12/31 03:59:43;;;;;;;7.47;6.77;;;4.70;99.90;;;;;;5041892;28;20195;-71
2020/12/31 04:02:09;;;;;;;6.83;5.37;;;4.70;99.90;;;;;;5050542;28;20205;-71
2020/12/31 04:04:34;;;;;;;7.13;6.40;;;4.70;99.90;;;;;;5053537;28;20182;-71
2020/12/31 04:07:00;;;;;;;8.93;6.27;;;4.70;99.90;;;;;;5054088;28;20194;-71
2020/12/31 04:09:26;;;;;;;8.30;6.47;;;4.70;99.90;;;;;;5053845;28;20177;-71
2020/12/31 04:11:51;;;;;;;6.60;5.90;;;4.60;99.90;;;;;;5046061;28;20175;-71
2020/12/31 04:14:16;;;;;;;8.07;6.90;;;4.60;99.90;;;;;;5038652;28;20232;-71
2020/12/31 04:16:42;;;;;;;6.63;5.80;;;4.60;99.90;;;;;;5052276;28;20212;-71
2020/12/31 04:19:07;;;;;;;6.47;5.87;;;4.60;99.90;;;;;;5041184;28;20178;-71
2020/12/31 04:21:33;;;;;;;7.00;6.30;;;4.60;99.90;;;;;;5034616;28;20235;-71
2020/12/31 04:23:58;;;;;;;6.17;5.57;;;4.60;99.90;;;;;;5045628;28;20231;-70
2020/12/31 04:26:24;;;;;;;6.43;5.73;;;4.60;99.90;;;;;;5053322;28;20303;-71
2020/12/31 04:28:49;;;;;;;6.07;5.43;;;4.60;99.90;;;;;;5036132;28;20277;-71
2020/12/31 04:31:15;;;;;;;6.30;5.70;;;4.60;99.90;;;;;;5045121;28;20184;-71
2020/12/31 04:33:40;;;;;;;6.17;5.53;;;4.60;99.90;;;;;;5051053;28;20521;-71
2020/12/31 04:36:06;;;;;;;5.27;4.77;;;4.60;99.90;;;;;;5052148;28;20270;-71
2020/12/31 04:38:31;;;;;;;7.53;5.60;;;4.60;99.90;;;;;;5052876;28;20170;-71
2020/12/31 04:41:02;;;;;;;6.13;5.53;;;4.60;99.90;;;;;;5052153;28;20177;-71
2020/12/31 04:43:27;;;;;;;8.00;6.67;;;4.60;99.90;;;;;;5051325;28;20551;-71
2020/12/31 04:45:54;;;;;;;6.67;5.40;;;4.60;99.90;;;;;;5045160;28;20458;-71
2020/12/31 04:48:40;;;;;;;6.10;5.33;;;4.60;99.90;;;;;;5036561;28;20537;-71
2020/12/31 04:51:07;;;;;;;6.93;6.20;;;4.60;99.90;;;;;;5045222;28;20463;-70
2020/12/31 04:53:33;;;;;;;5.70;4.70;;;4.60;99.90;;;;;;5052861;28;20423;-70
2020/12/31 04:56:01;;;;;;;7.33;5.40;;;4.50;99.90;;;;;;5037597;28;21082;-71
2020/12/31 04:58:27;;;;;;;7.13;5.13;;;4.50;99.90;;;;;;5033811;28;20296;-71
2020/12/31 05:00:52;;;;;;;7.43;6.20;;;4.50;99.90;;;;;;5042025;28;20808;-71
2020/12/31 05:03:18;;;;;;;5.73;5.17;;;4.50;99.90;;;;;;5041746;28;20230;-71
2020/12/31 05:05:45;;;;;;;7.30;5.80;;;4.50;99.90;;;;;;5033326;28;20202;-71
2020/12/31 05:08:11;;;;;;;6.73;5.83;;;4.40;99.90;;;;;;5047532;28;20181;-71
2020/12/31 05:10:38;;;;;;;6.93;5.43;;;4.40;99.90;;;;;;5052855;28;20455;-71
2020/12/31 05:13:05;;;;;;;6.07;5.47;;;4.50;99.90;;;;;;5053101;28;20825;-71
2020/12/31 05:15:37;;;;;;;6.07;5.03;;;4.50;99.90;;;;;;5043523;28;20521;-71
2020/12/31 05:18:23;;;;;;;5.63;5.03;;;4.50;99.90;;;;;;5038843;28;20412;-71
2020/12/31 05:20:54;;;;;;;6.47;5.73;;;4.50;99.90;;;;;;5049616;28;20413;-71
2020/12/31 05:23:21;;;;;;;6.43;5.83;;;4.50;99.90;;;;;;5041157;28;20443;-71
2020/12/31 05:25:47;;;;;;;5.03;4.53;;;4.50;99.90;;;;;;5039441;28;20975;-71
2020/12/31 05:28:25;;;;;;;5.80;5.20;;;4.50;99.90;;;;;;5047804;28;20440;-71
2020/12/31 05:30:53;;;;;;;6.13;5.30;;;4.50;99.90;;;;;;5052343;28;20421;-71
2020/12/31 05:33:30;;;;;;;6.90;5.10;;;4.50;99.90;;;;;;5052658;28;20771;-72
2020/12/31 05:36:24;;;;;;;6.70;5.63;;;4.50;99.90;;;;;;5044426;28;20457;-71
2020/12/31 05:39:01;;;;;;;5.70;5.13;;;4.50;99.90;;;;;;5052705;28;20443;-71
2020/12/31 05:41:31;;;;;;;6.83;5.27;;;4.50;99.90;;;;;;5043873;28;20810;-71
2020/12/31 05:43:59;;;;;;;12.23;7.00;;;4.40;99.90;;;;;;5045491;28;20415;-71
2020/12/31 05:46:26;;;;;;;7.10;5.13;;;4.40;99.90;;;;;;5047950;28;20442;-71
2020/12/31 05:48:59;;;;;;;6.27;5.40;;;4.40;99.90;;;;;;5033275;28;20428;-72
2020/12/31 05:51:32;;;;;;;5.53;5.03;;;4.40;99.90;;;;;;5039996;28;20421;-71
2020/12/31 05:54:14;;;;;;;5.30;4.80;;;4.40;99.90;;;;;;5040610;28;20428;-71
2020/12/31 05:56:42;;;;;;;5.87;5.30;;;4.50;99.90;;;;;;5041131;28;20456;-71
2020/12/31 05:59:23;;;;;;;6.17;4.80;;;4.40;99.90;;;;;;5044670;28;20681;-71
2020/12/31 06:02:02;;;;;;;6.47;5.30;;;4.50;99.90;;;;;;5044471;28;20415;-71
2020/12/31 06:04:31;;;;;;;5.23;4.77;;;4.50;99.90;;;;;;5046378;28;20417;-71
2020/12/31 06:07:01;;;;;;;5.13;4.70;;;4.40;99.90;;;;;;5050541;28;20435;-71
2020/12/31 06:09:29;;;;;;;5.77;4.30;;;4.40;99.90;;;;;;5047083;28;20425;-71
2020/12/31 06:12:06;;;;;;;5.03;4.50;;;4.40;99.90;;;;;;5048449;28;20440;-71
2020/12/31 06:14:33;;;;;;;4.80;4.30;;;4.40;99.90;;;;;;5048811;28;20466;-71
2020/12/31 06:17:03;;;;;;;6.33;5.10;;;4.40;99.90;;;;;;5054147;28;20444;-71
2020/12/31 06:19:30;;;;;;;5.37;4.87;;;4.40;99.90;;;;;;5067641;28;20447;-71
2020/12/31 06:22:11;;;;;;;6.40;4.63;;;4.40;99.90;;;;;;5056565;28;20425;-71
2020/12/31 06:24:39;;;;;;;6.37;5.03;;;4.40;99.90;;;;;;5048528;28;20918;-71
2020/12/31 06:27:06;;;;;;;5.30;4.80;;;4.40;99.90;;;;;;5043788;28;20476;-71
2020/12/31 06:29:40;;;;;;;5.40;4.70;;;4.40;99.90;;;;;;5045655;28;20897;-71
2020/12/31 06:32:13;;;;;;;6.10;4.30;;;4.50;99.90;;;;;;5034565;28;20420;-72
2020/12/31 06:34:40;;;;;;;4.50;4.10;;;4.40;99.90;;;;;;5031738;28;20440;-71
2020/12/31 06:37:10;;;;;;;4.80;4.40;;;4.50;99.90;;;;;;5033552;28;20461;-71
2020/12/31 06:39:36;;;;;;;6.57;4.83;;;4.40;99.90;;;;;;5055423;28;20415;-71
2020/12/31 06:42:02;;;;;;;4.60;4.20;;;4.50;99.90;;;;;;5056046;28;20438;-71
2020/12/31 06:44:32;;;;;;;4.43;4.03;;;4.50;99.90;;;;;;5054842;28;20443;-71
2020/12/31 06:46:58;;;;;;;4.70;4.30;;;4.40;99.90;;;;;;5055864;28;20192;-71
2020/12/31 06:49:51;;;;;;;3.93;3.53;;;4.50;99.90;;;;;;5035850;28;20418;-71
2020/12/31 06:52:21;;;;;;;3.90;3.40;;;4.40;99.90;;;;;;5043927;28;20504;-71
2020/12/31 06:54:47;;;;;;;5.30;3.80;;;4.40;99.90;;;;;;5055066;28;20442;-71
2020/12/31 06:57:36;;;;;;;3.97;3.57;;;4.40;99.90;;;;;;5057601;28;20455;-71
2020/12/31 07:00:03;;;;;;;3.80;3.40;;;4.40;99.90;;;;;;5068080;28;20416;-71
2020/12/31 07:02:28;;;;;;;4.10;3.80;;;4.40;99.90;;;;;;5068562;28;20543;-71
2020/12/31 07:04:54;;;;;;;3.60;3.30;;;4.40;99.90;;;;;;5052925;28;20434;-71
2020/12/31 07:07:19;;;;;;;4.40;3.70;;;4.40;99.90;;;;;;5046955;28;20202;-72
2020/12/31 07:10:01;;;;;;;3.90;3.50;;;4.40;99.90;;;;;;5036007;28;20574;-71
2020/12/31 07:12:34;;;;;;;3.83;3.30;;;4.40;99.90;;;;;;5035235;28;20186;-71
2020/12/31 07:15:00;;;;;;;5.37;4.17;;;4.40;99.90;;;;;;5048382;28;20538;-71
2020/12/31 07:17:35;;;;;;;4.00;3.57;;;4.40;99.90;;;;;;5045415;28;20511;-71
2020/12/31 07:20:03;;;;;;;4.20;3.60;;;4.40;99.90;;;;;;5041404;28;20432;-72
2020/12/31 07:22:29;;;;;;;5.40;4.90;;;4.40;99.90;;;;;;5040585;28;20433;-71
2020/12/31 07:25:08;;;;;;;3.93;3.53;;;4.40;99.90;;;;;;5039941;28;20430;-71
2020/12/31 07:27:36;;;;;;;4.07;3.20;;;4.40;99.90;;;;;;5038660;28;20748;-72
2020/12/31 07:30:08;;;;;;;5.27;4.43;;;4.40;99.90;;;;;;5042045;28;20934;-72
2020/12/31 07:32:54;;;;;;;4.57;3.53;;;4.40;99.90;;;;;;5068109;28;20436;-72
2020/12/31 07:35:35;;;;;;;3.40;3.00;;;4.40;99.90;;;;;;5048622;28;20464;-73
2020/12/31 07:38:16;;;;;;;3.90;3.50;;;4.40;99.90;;;;;;5035203;28;20518;-72
2020/12/31 07:40:51;;;;;;;3.90;3.40;;;4.40;99.90;;;;;;5048807;28;20845;-71
2020/12/31 07:43:22;;;;;;;3.53;3.23;;;4.40;99.90;;;;;;5045765;28;20500;-71
2020/12/31 07:46:00;;;;;;;3.87;3.30;;;4.40;99.90;;;;;;5052095;28;21300;-72
2020/12/31 07:48:27;;;;;;;3.93;3.63;;;4.40;99.90;;;;;;5049396;28;20933;-72
2020/12/31 07:51:01;;;;;;;3.80;3.50;;;4.40;99.90;;;;;;5040236;28;20441;-71
2020/12/31 07:53:29;;;;;;;7.30;5.30;;;4.40;99.90;;;;;;5049811;28;20929;-72
2020/12/31 07:55:55;;;;;;;4.50;4.00;;;4.40;99.90;;;;;;5046810;28;20517;-72
2020/12/31 07:58:25;;;;;;;3.90;3.60;;;4.40;99.90;;;;;;5055061;28;20419;-72
2020/12/31 08:01:00;;;;;;;3.30;3.07;;;4.50;99.90;;;;;;5044530;28;20417;-72
2020/12/31 08:03:26;;;;;;;3.80;3.50;;;4.30;99.90;;;;;;5035617;28;20507;-72
2020/12/31 08:05:56;;;;;;;3.50;3.20;;;4.40;99.90;;;;;;5035104;28;20574;-72
2020/12/31 08:08:22;;;;;;;3.80;3.50;;;4.40;99.90;;;;;;5038384;28;20214;-72
2020/12/31 08:10:48;;;;;;;3.80;3.50;;;4.40;99.90;;;;;;5051068;28;20934;-72
2020/12/31 08:13:16;;;;;;;4.70;4.30;;;4.50;99.90;;;;;;5041316;28;20463;-72
2020/12/31 08:15:47;;;;;;;5.03;4.33;;;4.50;99.90;;;;;;5042841;28;20632;-72
2020/12/31 08:18:13;;;;;;;4.43;4.10;;;4.50;99.90;;;;;;5041749;28;20503;-73
2020/12/31 08:20:41;;;;;;;3.80;3.50;;;4.50;99.90;;;;;;5034644;28;20434;-73
2020/12/31 08:23:16;;;;;;;4.77;4.37;;;4.40;99.90;;;;;;5046529;28;20701;-72
2020/12/31 08:25:42;;;;;;;5.10;4.50;;;4.50;99.90;;;;;;5053243;28;20819;-72
2020/12/31 08:28:08;;;;;;;4.53;4.10;;;4.50;99.90;;;;;;5042795;28;20452;-73
2020/12/31 08:30:35;;;;;;;4.80;4.30;;;4.50;99.90;;;;;;5041696;28;20419;-73
2020/12/31 08:33:02;;;;;;;5.17;4.40;;;4.50;99.90;;;;;;5049506;28;20212;-73
2020/12/31 08:35:36;;;;;;;4.87;4.47;;;4.60;99.90;;;;;;5045738;28;21238;-73
2020/12/31 08:38:06;;;;;;;4.73;4.30;;;4.60;99.90;;;;;;5053542;28;20737;-71
2020/12/31 08:40:39;;;;;;;5.23;4.73;;;4.60;99.90;;;;;;5045637;28;20424;-72
2020/12/31 08:43:08;;;;;;;4.93;4.37;;;4.60;99.90;;;;;;5044435;28;20496;-72
2020/12/31 08:45:33;;;;;;;6.03;5.43;;;4.60;99.90;;;;;;5051602;28;20471;-72
2020/12/31 08:48:13;;;;;;;5.20;4.63;;;4.60;99.90;;;;;;5053319;28;20504;-72
2020/12/31 08:50:39;;;;;;;5.77;4.80;;;4.60;99.90;;;;;;5047151;28;20184;-72
2020/12/31 08:53:05;;;;;;;6.07;5.10;;;4.60;99.90;;;;;;5049995;28;20428;-71
2020/12/31 08:55:34;;;;;;;6.03;4.57;;;4.60;99.90;;;;;;5036735;28;20479;-72
2020/12/31 08:58:13;;;;;;;5.00;4.50;;;4.60;99.90;;;;;;5054340;28;20165;-72
2020/12/31 09:00:39;;;;;;;5.80;5.20;;;4.60;99.90;;;;;;5050036;28;20890;-73
2020/12/31 09:03:05;;;;;;;5.80;4.60;;;4.70;99.90;;;;;;5053159;28;20416;-72
2020/12/31 09:05:31;;;;;;;5.70;4.90;;;4.70;99.90;;;;;;5053284;28;20962;-72
2020/12/31 09:08:06;;;;;;;7.13;5.50;;;4.70;99.90;;;;;;5037222;28;20436;-72
2020/12/31 09:10:36;;;;;;;5.43;4.93;;;4.70;99.90;;;;;;5040487;28;20206;-72
2020/12/31 09:13:03;;;;;;;5.40;4.83;;;4.80;99.90;;;;;;5040493;28;20431;-72
2020/12/31 09:15:28;;;;;;;5.30;4.80;;;4.80;99.90;;;;;;5033344;28;20539;-72
2020/12/31 09:17:54;;;;;;;5.43;4.90;;;4.70;99.90;;;;;;5049554;28;20431;-72
2020/12/31 09:20:25;;;;;;;5.63;5.13;;;4.70;99.90;;;;;;5036441;28;20409;-72
2020/12/31 09:22:52;;;;;;;6.50;5.20;;;4.70;99.90;;;;;;5052823;28;20471;-72
2020/12/31 09:25:18;;;;;;;5.73;5.13;;;4.70;99.90;;;;;;5034184;28;20448;-72
2020/12/31 09:27:48;;;;;;;5.00;4.50;;;4.70;99.90;;;;;;5034209;28;20813;-72
2020/12/31 09:30:15;;;;;;;6.53;5.50;;;4.80;99.90;;;;;;5041807;28;20417;-72
2020/12/31 09:32:45;;;;;;;5.50;5.00;;;4.80;99.90;;;;;;5047883;28;20420;-72
2020/12/31 09:35:11;;;;;;;6.07;5.47;;;4.80;99.90;;;;;;5033609;28;22336;-71
2020/12/31 09:37:51;;;;;;;5.93;5.33;;;4.90;99.90;;;;;;5033320;28;20461;-73
2020/12/31 09:40:17;;;;;;;5.63;4.73;;;4.90;99.90;;;;;;5041580;28;20788;-72
2020/12/31 09:42:43;;;;;;;6.17;5.57;;;4.90;99.90;;;;;;5033502;28;20421;-72
2020/12/31 09:45:09;;;;;;;5.37;4.67;;;4.90;99.90;;;;;;5049227;28;20847;-72
2020/12/31 09:47:34;;;;;;;5.60;5.10;;;4.90;99.90;;;;;;5045053;28;20424;-73
2020/12/31 09:50:00;;;;;;;5.90;5.40;;;5.00;99.90;;;;;;5038167;28;20179;-73
2020/12/31 09:52:26;;;;;;;6.17;5.00;;;5.00;99.90;;;;;;5033482;28;20179;-73
2020/12/31 09:54:51;;;;;;;6.00;5.40;;;5.00;99.90;;;;;;5046523;28;20203;-73
2020/12/31 09:57:17;;;;;;;6.47;5.50;;;5.00;99.90;;;;;;5035586;28;20382;-72
2020/12/31 09:59:42;;;;;;;5.93;5.33;;;5.00;99.90;;;;;;5048326;28;20541;-72
2020/12/31 10:02:08;;;;;;;6.83;5.83;;;5.00;99.90;;;;;;5040337;28;20265;-73
2020/12/31 10:04:34;;;;;;;6.03;5.43;;;5.00;99.90;;;;;;5033027;28;20173;-72
2020/12/31 10:06:59;;;;;;;5.07;4.60;;;5.00;99.90;;;;;;5033028;28;20798;-72
2020/12/31 10:09:25;;;;;;;5.27;4.77;;;5.10;99.90;;;;;;5033508;28;20179;-73
2020/12/31 10:11:54;;;;;;;5.43;4.90;;;5.10;99.90;;;;;;5035170;28;20175;-72
2020/12/31 10:14:20;;;;;;;5.30;4.80;;;5.10;99.90;;;;;;5051723;28;20197;-72
2020/12/31 10:16:46;;;;;;;6.53;5.80;;;5.20;99.90;;;;;;5046063;28;20562;-73
2020/12/31 10:19:11;;;;;;;5.13;4.63;;;5.10;99.90;;;;;;5036188;28;20471;-73
2020/12/31 10:21:37;;;;;;;5.67;4.90;;;5.10;99.90;;;;;;5037822;28;20186;-73
2020/12/31 10:24:03;;;;;;;5.00;4.60;;;5.10;99.90;;;;;;5055960;28;20657;-72
2020/12/31 10:26:29;;;;;;;5.20;4.70;;;5.20;99.90;;;;;;5040912;28;20210;-73
2020/12/31 10:28:54;;;;;;;7.30;4.60;;;5.10;99.90;;;;;;5061061;28;20436;-73
2020/12/31 10:31:20;;;;;;;6.57;4.80;;;5.10;99.90;;;;;;5051153;28;20182;-73
2020/12/31 10:33:46;;;;;;;5.30;4.80;;;5.10;99.90;;;;;;5047436;28;20199;-73
2020/12/31 10:36:11;;;;;;;5.63;4.87;;;5.10;99.90;;;;;;5050718;28;20267;-73
2020/12/31 10:38:39;;;;;;;6.47;5.30;;;5.10;99.90;;;;;;5054549;28;20174;-72
2020/12/31 10:41:07;;;;;;;5.00;4.50;;;5.10;99.90;;;;;;5041842;28;20185;-72
2020/12/31 10:43:32;;;;;;;5.13;4.70;;;5.20;99.90;;;;;;5056001;28;20451;-74
2020/12/31 10:45:58;;;;;;;5.07;4.53;;;5.10;99.90;;;;;;5038167;28;20809;-72
2020/12/31 10:48:23;;;;;;;4.40;3.83;;;5.10;99.90;;;;;;5042282;28;20204;-72
2020/12/31 10:50:49;;;;;;;5.10;4.60;;;5.20;99.90;;;;;;5036561;28;20179;-73
2020/12/31 10:53:14;;;;;;;4.10;3.80;;;5.20;99.90;;;;;;5044691;28;20182;-73
2020/12/31 10:55:40;;;;;;;4.27;3.87;;;5.20;99.90;;;;;;5036404;28;20213;-72
2020/12/31 10:58:05;;;;;;;5.00;4.43;;;5.20;99.90;;;;;;5038702;28;20204;-72
2020/12/31 11:00:31;;;;;;;5.90;4.93;;;5.20;99.90;;;;;;5055544;28;20174;-72
2020/12/31 11:02:57;;;;;;;4.70;4.17;;;5.20;99.90;;;;;;5036647;28;20434;-72
2020/12/31 11:05:22;;;;;;;5.17;4.20;;;5.30;99.90;;;;;;5035900;28;20233;-72
2020/12/31 11:07:48;;;;;;;4.80;3.60;;;5.30;99.90;;;;;;5044332;28;20182;-72
2020/12/31 11:10:13;;;;;;;3.93;3.43;;;5.30;99.90;;;;;;5055681;28;20181;-72
2020/12/31 11:12:39;;;;;;;3.63;3.33;;;5.40;99.90;;;;;;5055576;28;20204;-72
2020/12/31 11:15:04;;;;;;;4.43;4.03;;;5.30;99.90;;;;;;5053111;28;20185;-72
2020/12/31 11:17:30;;;;;;;4.30;3.50;;;5.30;99.90;;;;;;5049301;28;20685;-72
2020/12/31 11:19:56;;;;;;;4.03;3.63;;;5.30;99.90;;;;;;5055217;28;20192;-72
2020/12/31 11:22:21;;;;;;;3.53;3.23;;;5.20;99.90;;;;;;5051495;28;20168;-72
2020/12/31 11:24:47;;;;;;;3.60;3.30;;;5.20;99.90;;;;;;5049623;28;20240;-72
2020/12/31 11:27:12;;;;;;;3.37;3.10;;;5.30;99.90;;;;;;5054728;28;20252;-72
2020/12/31 11:29:38;;;;;;;3.30;3.00;;;5.30;99.90;;;;;;5055462;28;20174;-72
2020/12/31 11:32:03;;;;;;;3.00;2.80;;;5.30;99.90;;;;;;5054582;28;20166;-72
2020/12/31 11:34:29;;;;;;;4.10;3.60;;;5.30;99.90;;;;;;5054422;28;20531;-72
2020/12/31 11:36:55;;;;;;;3.60;3.30;;;5.40;99.90;;;;;;5047189;28;20208;-72
2020/12/31 11:39:22;;;;;;;4.00;3.60;;;5.40;99.90;;;;;;5043565;28;20242;-72
2020/12/31 11:41:48;;;;;;;3.23;2.93;;;5.40;99.90;;;;;;5050353;28;20437;-72
2020/12/31 11:44:14;;;;;;;4.17;3.80;;;5.50;99.90;;;;;;5053670;28;20486;-72
2020/12/31 11:46:40;;;;;;;2.80;2.60;;;5.50;99.90;;;;;;5046406;28;20444;-72
2020/12/31 11:49:05;;;;;;;2.80;2.60;;;5.50;99.90;;;;;;5037804;28;20444;-72
2020/12/31 11:51:31;;;;;;;2.43;2.30;;;5.50;99.90;;;;;;5047087;28;20182;-72
2020/12/31 11:53:57;;;;;;;3.13;2.80;;;5.50;99.90;;;;;;5054327;28;20198;-72
2020/12/31 11:56:23;;;;;;;3.80;3.50;;;5.50;99.90;;;;;;5054513;28;20233;-72
2020/12/31 11:58:49;;;;;;;3.03;2.63;;;5.60;99.90;;;;;;5040595;28;20413;-72
2020/12/31 12:01:16;;;;;;;2.50;2.30;;;5.60;99.90;;;;;;5052746;28;20918;-72
2020/12/31 12:03:42;;;;;;;5.20;3.13;;;5.60;99.90;;;;;;5053076;28;20178;-72
2020/12/31 12:06:07;;;;;;;2.43;2.23;;;5.60;99.90;;;;;;5036780;28;20437;-72
2020/12/31 12:08:33;;;;;;;2.53;2.33;;;5.60;99.90;;;;;;5035270;28;20490;-72
2020/12/31 12:10:58;;;;;;;2.63;2.43;;;5.70;99.90;;;;;;5035209;28;20183;-73
2020/12/31 12:13:25;;;;;;;2.87;2.67;;;5.60;99.90;;;;;;5034781;28;20229;-73
2020/12/31 12:15:50;;;;;;;2.47;2.27;;;5.60;99.90;;;;;;5033258;28;20203;-73
2020/12/31 12:18:16;;;;;;;2.47;2.27;;;5.60;99.90;;;;;;5051385;28;20779;-73
2020/12/31 12:20:41;;;;;;;2.57;2.37;;;5.60;99.90;;;;;;5046447;28;20170;-73
2020/12/31 12:23:07;;;;;;;3.80;2.87;;;5.60;99.90;;;;;;5054097;28;20221;-71
2020/12/31 12:25:32;;;;;;;2.70;2.50;;;5.60;99.90;;;;;;5036929;28;20662;-72
2020/12/31 12:27:58;;;;;;;3.23;2.70;;;5.60;99.90;;;;;;5053946;28;20230;-72
2020/12/31 12:30:23;;;;;;;2.90;2.70;;;5.50;99.90;;;;;;5044416;28;20179;-72
2020/12/31 12:32:50;;;;;;;3.07;2.87;;;5.50;99.90;;;;;;5039100;28;20177;-71
2020/12/31 12:35:15;;;;;;;3.10;2.90;;;5.50;99.90;;;;;;5045383;28;20278;-71
2020/12/31 12:37:41;;;;;;;2.73;2.53;;;5.50;99.90;;;;;;5034690;28;20493;-71
2020/12/31 12:40:08;;;;;;;4.00;3.60;;;5.50;99.90;;;;;;5049248;28;20260;-73
2020/12/31 12:42:35;;;;;;;3.53;3.23;;;5.50;99.90;;;;;;5043520;28;20167;-72
2020/12/31 12:45:00;;;;;;;3.23;3.03;;;5.50;99.90;;;;;;5047902;28;20751;-71
2020/12/31 12:47:26;;;;;;;3.60;3.30;;;5.50;99.90;;;;;;5037984;28;20421;-70
2020/12/31 12:49:52;;;;;;;4.27;3.87;;;5.50;99.90;;;;;;5040963;28;20422;-71
2020/12/31 12:52:17;;;;;;;3.70;3.30;;;5.40;99.90;;;;;;5034919;28;20254;-71
2020/12/31 12:54:43;;;;;;;4.43;4.03;;;5.30;99.90;;;;;;5044783;28;20174;-71
2020/12/31 12:57:08;;;;;;;4.40;4.00;;;5.40;99.90;;;;;;5047214;28;20230;-72
2020/12/31 12:59:34;;;;;;;4.30;3.90;;;5.40;99.90;;;;;;5033783;28;20185;-71